createdAt,value
2022-11-27T00:01:58.383Z,24.35
2022-11-27T00:04:26.166Z,19.42
2022-11-27T00:06:54.043Z,20.58
2022-11-27T00:09:21.818Z,21.13
2022-11-27T00:11:49.665Z,19.83
2022-11-27T00:14:18.180Z,21.25
2022-11-27T00:16:46.112Z,18.70
2022-11-27T00:19:13.972Z,20.17
2022-11-27T00:21:41.748Z,20.60
2022-11-27T00:24:09.857Z,19.83
2022-11-27T00:26:38.549Z,20.37
2022-11-27T00:29:09.699Z,17.80
2022-11-27T00:31:39.133Z,19.77
2022-11-27T00:34:09.285Z,18.65
2022-11-27T00:36:43.956Z,21.63
2022-11-27T00:39:14.848Z,20.40
2022-11-27T00:41:42.718Z,19.53
2022-11-27T00:44:10.443Z,24.10
2022-11-27T00:46:39.075Z,20.27
2022-11-27T00:49:08.159Z,22.95
2022-11-27T00:51:36.337Z,24.73
2022-11-27T00:54:03.985Z,23.08
2022-11-27T00:56:34.365Z,19.60
2022-11-27T00:59:05.544Z,21.20
2022-11-27T01:01:37.269Z,24.67
2022-11-27T01:04:11.163Z,21.20
2022-11-27T01:06:39.343Z,20.67
2022-11-27T01:09:07.857Z,21.38
2022-11-27T01:11:36.927Z,21.77
2022-11-27T01:14:08.368Z,20.38
2022-11-27T01:16:42.690Z,21.02
2022-11-27T01:19:12.348Z,18.45
2022-11-27T01:21:41.082Z,19.75
2022-11-27T01:24:09.267Z,21.23
2022-11-27T01:26:37.345Z,20.33
2022-11-27T01:29:05.524Z,20.42
2022-11-27T01:31:34.839Z,20.47
2022-11-27T01:34:06.723Z,18.37
2022-11-27T01:36:35.469Z,19.38
2022-11-27T01:39:03.149Z,20.65
2022-11-27T01:41:37.581Z,21.20
2022-11-27T01:44:45.706Z,19.00
2022-11-27T01:47:18.792Z,24.65
2022-11-27T01:49:52.424Z,20.63
2022-11-27T01:52:24.909Z,22.63
2022-11-27T01:55:00.451Z,22.58
2022-11-27T01:57:39.107Z,23.00
2022-11-27T02:00:09.121Z,22.70
2022-11-27T02:02:36.991Z,19.67
2022-11-27T02:05:05.037Z,22.90
2022-11-27T02:07:33.219Z,22.27
2022-11-27T02:10:01.024Z,24.98
2022-11-27T02:12:41.442Z,21.30
2022-11-27T02:15:28.210Z,20.33
2022-11-27T02:18:11.567Z,23.27
2022-11-27T02:20:58.426Z,21.40
2022-11-27T02:23:53.500Z,19.65
2022-11-27T02:26:45.084Z,20.58
2022-11-27T02:29:17.311Z,22.83
2022-11-27T02:31:57.888Z,21.73
2022-11-27T02:34:36.125Z,20.75
2022-11-27T02:37:26.516Z,22.83
2022-11-27T02:40:15.176Z,22.70
2022-11-27T02:42:49.522Z,21.95
2022-11-27T02:45:32.078Z,22.88
2022-11-27T02:48:00.158Z,19.83
2022-11-27T02:50:30.043Z,21.48
2022-11-27T02:53:02.242Z,21.67
2022-11-27T02:55:34.286Z,23.60
2022-11-27T02:58:06.362Z,23.05
2022-11-27T03:00:35.663Z,28.25
2022-11-27T03:03:08.763Z,22.95
2022-11-27T03:05:42.064Z,23.33
2022-11-27T03:08:30.434Z,16.92
2022-11-27T03:11:04.920Z,21.30
2022-11-27T03:13:38.691Z,18.27
2022-11-27T03:16:15.753Z,17.55
2022-11-27T03:19:03.287Z,20.20
2022-11-27T03:21:42.651Z,20.95
2022-11-27T03:24:11.773Z,19.37
2022-11-27T03:26:40.578Z,18.60
2022-11-27T03:29:14.151Z,18.48
2022-11-27T03:31:42.056Z,18.45
2022-11-27T03:34:10.194Z,16.08
2022-11-27T03:36:37.995Z,18.10
2022-11-27T03:39:05.899Z,16.63
2022-11-27T03:41:51.029Z,19.63
2022-11-27T03:44:48.700Z,17.77
2022-11-27T03:47:47.222Z,18.38
2022-11-27T03:50:34.868Z,16.50
2022-11-27T03:53:15.407Z,15.40
2022-11-27T03:56:06.778Z,14.93
2022-11-27T03:58:47.089Z,17.65
2022-11-27T04:01:18.023Z,14.75
2022-11-27T04:03:45.629Z,15.10
2022-11-27T04:06:14.620Z,13.57
2022-11-27T04:08:45.577Z,13.25
2022-11-27T04:11:13.569Z,13.27
2022-11-27T04:13:41.454Z,15.93
2022-11-27T04:16:09.651Z,15.95
2022-11-27T04:18:37.512Z,13.85
2022-11-27T04:21:05.692Z,14.48
2022-11-27T04:23:34.666Z,14.98
2022-11-27T04:26:02.514Z,15.00
2022-11-27T04:28:30.238Z,15.35
2022-11-27T04:30:58.605Z,16.73
2022-11-27T04:33:26.642Z,16.20
2022-11-27T04:35:54.482Z,16.02
2022-11-27T04:38:22.887Z,14.75
2022-11-27T04:40:54.349Z,14.80
2022-11-27T04:43:22.387Z,14.23
2022-11-27T04:45:50.334Z,15.27
2022-11-27T04:48:18.937Z,14.07
2022-11-27T04:50:47.733Z,14.70
2022-11-27T04:53:15.925Z,12.88
2022-11-27T04:55:43.906Z,13.35
2022-11-27T04:58:14.102Z,17.15
2022-11-27T05:00:42.739Z,14.02
2022-11-27T05:03:12.270Z,16.08
2022-11-27T05:05:40.341Z,13.07
2022-11-27T05:08:08.373Z,14.38
2022-11-27T05:10:36.871Z,12.70
2022-11-27T05:13:07.642Z,14.77
2022-11-27T05:15:36.205Z,14.35
2022-11-27T05:18:04.084Z,14.00
2022-11-27T05:20:32.218Z,12.02
2022-11-27T05:23:01.606Z,12.35
2022-11-27T05:25:29.774Z,14.30
2022-11-27T05:28:00.190Z,15.15
2022-11-27T05:30:28.098Z,14.98
2022-11-27T05:32:55.950Z,15.25
2022-11-27T05:35:24.811Z,14.23
2022-11-27T05:37:52.975Z,15.05
2022-11-27T05:40:21.064Z,15.88
2022-11-27T05:42:48.917Z,14.10
2022-11-27T05:45:16.882Z,15.70
2022-11-27T05:47:44.583Z,13.63
2022-11-27T05:50:12.331Z,13.20
2022-11-27T05:52:40.353Z,16.27
2022-11-27T05:55:08.346Z,14.20
2022-11-27T05:57:36.329Z,14.55
2022-11-27T06:00:06.127Z,16.08
2022-11-27T06:02:34.588Z,18.92
2022-11-27T06:05:02.515Z,19.35
2022-11-27T06:07:32.268Z,15.98
2022-11-27T06:10:00.057Z,17.17
2022-11-27T06:12:32.394Z,16.95
2022-11-27T06:14:59.920Z,20.98
2022-11-27T06:17:27.926Z,19.10
2022-11-27T06:19:55.926Z,17.13
2022-11-27T06:22:23.712Z,15.77
2022-11-27T06:24:51.647Z,18.08
2022-11-27T06:27:19.590Z,17.38
2022-11-27T06:29:47.419Z,17.65
2022-11-27T06:32:15.403Z,19.70
2022-11-27T06:34:45.601Z,17.23
2022-11-27T06:37:13.691Z,17.10
2022-11-27T06:39:41.527Z,17.20
2022-11-27T06:42:09.625Z,18.55
2022-11-27T06:44:40.673Z,18.27
2022-11-27T06:47:08.781Z,16.25
2022-11-27T06:49:37.065Z,16.35
2022-11-27T06:52:05.567Z,17.70
2022-11-27T06:54:33.449Z,17.40
2022-11-27T06:57:01.220Z,19.13
2022-11-27T06:59:29.119Z,15.95
2022-11-27T07:01:57.547Z,16.10
2022-11-27T07:04:25.856Z,16.13
2022-11-27T07:06:55.722Z,20.67
2022-11-27T07:09:23.726Z,19.00
2022-11-27T07:11:51.651Z,19.23
2022-11-27T07:14:19.723Z,16.73
2022-11-27T07:16:48.091Z,18.80
2022-11-27T07:19:21.968Z,19.73
2022-11-27T07:21:49.783Z,15.30
2022-11-27T07:24:17.655Z,18.88
2022-11-27T07:26:46.499Z,18.50
2022-11-27T07:29:14.281Z,15.80
2022-11-27T07:31:42.134Z,18.33
2022-11-27T07:34:15.976Z,16.60
2022-11-27T07:36:50.670Z,19.10
2022-11-27T07:39:33.757Z,17.67
2022-11-27T07:42:30.945Z,16.70
2022-11-27T07:44:54.175Z,19.15
2022-11-27T07:47:22.135Z,17.52
2022-11-27T07:49:52.522Z,16.30
2022-11-27T07:52:20.510Z,15.23
2022-11-27T07:54:48.370Z,15.57
2022-11-27T07:57:16.300Z,17.05
2022-11-27T07:59:47.842Z,19.40
2022-11-27T08:02:15.969Z,20.58
2022-11-27T08:04:46.443Z,19.35
2022-11-27T08:07:14.334Z,17.40
2022-11-27T08:09:42.230Z,18.02
2022-11-27T08:12:10.491Z,20.95
2022-11-27T08:14:38.425Z,20.98
2022-11-27T08:17:06.707Z,14.43
2022-11-27T08:19:34.291Z,19.05
2022-11-27T08:22:02.001Z,20.55
2022-11-27T08:24:31.043Z,18.65
2022-11-27T08:27:01.987Z,17.23
2022-11-27T08:29:33.808Z,20.55
2022-11-27T08:32:02.866Z,17.17
2022-11-27T08:34:35.052Z,16.67
2022-11-27T08:37:05.332Z,18.30
2022-11-27T08:39:33.239Z,18.33
2022-11-27T08:42:01.346Z,24.98
2022-11-27T08:44:29.226Z,21.50
2022-11-27T08:47:00.093Z,15.38
2022-11-27T08:49:27.914Z,18.73
2022-11-27T08:51:55.786Z,17.42
2022-11-27T08:54:23.575Z,17.23
2022-11-27T08:56:53.135Z,15.48
2022-11-27T08:59:20.919Z,18.70
2022-11-27T09:01:48.715Z,17.23
2022-11-27T09:04:24.583Z,15.52
2022-11-27T09:06:57.995Z,14.20
2022-11-27T09:09:33.548Z,14.05
2022-11-27T09:12:01.701Z,15.35
2022-11-27T09:14:31.624Z,16.08
2022-11-27T09:17:04.530Z,15.40
2022-11-27T09:19:35.444Z,13.63
2022-11-27T09:22:04.448Z,18.13
2022-11-27T09:24:32.394Z,18.25
2022-11-27T09:27:00.212Z,15.32
2022-11-27T09:29:30.809Z,18.00
2022-11-27T09:32:14.359Z,16.52
2022-11-27T09:35:11.352Z,14.30
2022-11-27T09:38:02.463Z,11.90
2022-11-27T09:40:36.486Z,9.98
2022-11-27T09:43:10.190Z,10.07
2022-11-27T09:45:49.061Z,9.18
2022-11-27T09:48:46.518Z,10.20
2022-11-27T09:51:41.796Z,9.20
2022-11-27T09:54:17.718Z,8.13
2022-11-27T09:56:49.765Z,8.38
2022-11-27T09:59:20.042Z,9.32
2022-11-27T10:02:13.912Z,8.75
2022-11-27T10:05:12.895Z,8.23
2022-11-27T10:08:06.420Z,8.52
2022-11-27T10:12:00.332Z,8.70
2022-11-27T10:15:12.291Z,9.27
2022-11-27T10:17:52.339Z,9.32
2022-11-27T10:20:44.984Z,9.57
2022-11-27T10:23:27.635Z,8.82
2022-11-27T10:26:02.647Z,9.43
2022-11-27T10:28:44.956Z,11.30
2022-11-27T10:31:18.976Z,10.68
2022-11-27T10:33:53.926Z,9.32
2022-11-27T10:36:43.206Z,10.70
2022-11-27T10:39:21.389Z,10.27
2022-11-27T10:41:59.895Z,10.15
2022-11-27T10:44:32.672Z,8.73
2022-11-27T10:47:04.969Z,10.25
2022-11-27T10:49:34.439Z,12.02
2022-11-27T10:52:02.198Z,12.80
2022-11-27T10:54:36.304Z,10.20
2022-11-27T10:57:40.606Z,12.02
2022-11-27T11:00:24.223Z,11.90
2022-11-27T11:03:05.459Z,11.38
2022-11-27T11:06:18.520Z,12.98
2022-11-27T11:08:30.603Z,11.95
2022-11-27T11:11:02.173Z,11.82
2022-11-27T11:13:35.426Z,12.63
2022-11-27T11:16:24.189Z,14.55
2022-11-27T11:18:57.326Z,13.73
2022-11-27T11:21:32.988Z,13.15
2022-11-27T11:24:09.549Z,13.88
2022-11-27T11:26:46.530Z,13.73
2022-11-27T11:29:35.571Z,14.82
2022-11-27T11:32:13.213Z,13.90
2022-11-27T11:34:56.272Z,12.52
2022-11-27T11:37:30.322Z,13.55
2022-11-27T11:40:02.388Z,15.27
2022-11-27T11:42:34.329Z,16.65
2022-11-27T11:45:06.590Z,10.13
2022-11-27T11:47:34.664Z,16.23
2022-11-27T11:50:02.829Z,12.15
2022-11-27T11:52:50.120Z,16.05
2022-11-27T11:55:27.132Z,13.23
2022-11-27T11:58:19.570Z,12.57
2022-11-27T12:01:19.389Z,13.17
2022-11-27T12:03:55.523Z,12.27
2022-11-27T12:06:50.697Z,9.75
2022-11-27T12:09:52.511Z,12.43
2022-11-27T12:12:38.261Z,11.85
2022-11-27T12:15:26.969Z,11.35
2022-11-27T12:18:12.576Z,13.80
2022-11-27T12:21:09.649Z,14.88
2022-11-27T12:24:18.009Z,13.43
2022-11-27T12:27:01.107Z,12.77
2022-11-27T12:30:04.535Z,10.98
2022-11-27T12:33:01.287Z,13.05
2022-11-27T12:35:36.199Z,10.77
2022-11-27T12:38:34.213Z,13.25
2022-11-27T12:41:29.838Z,13.60
2022-11-27T12:44:07.499Z,18.10
2022-11-27T12:46:51.830Z,14.15
2022-11-27T12:49:28.733Z,17.35
2022-11-27T12:52:16.875Z,14.13
2022-11-27T12:54:57.098Z,13.00
2022-11-27T12:57:42.100Z,16.05
2022-11-27T13:00:18.278Z,14.80
2022-11-27T13:03:19.769Z,15.48
2022-11-27T13:05:54.492Z,17.17
2022-11-27T13:08:34.605Z,15.40
2022-11-27T13:11:13.564Z,15.77
2022-11-27T13:13:48.669Z,11.88
2022-11-27T13:16:25.438Z,15.70
2022-11-27T13:19:10.862Z,18.25
2022-11-27T13:24:15.672Z,15.38
2022-11-27T13:26:54.673Z,17.00
2022-11-27T13:29:44.877Z,16.85
2022-11-27T13:32:24.278Z,18.20
2022-11-27T13:34:53.936Z,18.73
2022-11-27T13:37:42.637Z,16.10
2022-11-27T13:40:33.657Z,18.38
2022-11-27T13:43:25.465Z,16.25
2022-11-27T13:46:26.671Z,16.15
2022-11-27T13:49:00.966Z,18.63
2022-11-27T13:51:37.227Z,19.85
2022-11-27T13:54:25.920Z,19.52
2022-11-27T13:57:11.540Z,18.40
2022-11-27T13:59:39.787Z,21.67
2022-11-27T14:02:08.604Z,20.10
2022-11-27T14:04:36.608Z,18.20
2022-11-27T14:07:12.892Z,19.05
2022-11-27T14:09:56.774Z,19.58
2022-11-27T14:12:30.129Z,20.35
2022-11-27T14:15:08.732Z,16.85
2022-11-27T14:17:41.810Z,18.80
2022-11-27T14:20:31.759Z,20.17
2022-11-27T14:23:11.854Z,17.98
2022-11-27T14:25:42.630Z,16.92
2022-11-27T14:28:19.105Z,14.60
2022-11-27T14:30:52.486Z,15.05
2022-11-27T14:33:27.574Z,15.45
2022-11-27T14:36:01.223Z,16.33
2022-11-27T14:38:34.191Z,17.48
2022-11-27T14:41:24.204Z,13.10
2022-11-27T14:44:17.485Z,15.32
2022-11-27T14:46:45.321Z,14.40
2022-11-27T14:49:22.870Z,12.98
2022-11-27T14:51:53.090Z,13.70
2022-11-27T14:54:31.573Z,12.57
2022-11-27T14:57:02.896Z,13.45
2022-11-27T14:59:30.894Z,12.77
2022-11-27T15:02:06.305Z,15.82
2022-11-27T15:04:38.734Z,15.70
2022-11-27T15:07:27.485Z,15.55
2022-11-27T15:09:57.623Z,16.42
2022-11-27T15:12:34.875Z,13.73
2022-11-27T15:15:19.001Z,12.23
2022-11-27T15:17:52.814Z,15.50
2022-11-27T15:20:42.144Z,14.38
2022-11-27T15:23:25.209Z,12.00
2022-11-27T15:26:16.043Z,19.05
2022-11-27T15:28:54.848Z,14.82
2022-11-27T15:31:38.984Z,12.73
2022-11-27T15:34:22.843Z,16.70
2022-11-27T15:37:02.823Z,13.70
2022-11-27T15:39:50.381Z,14.88
2022-11-27T15:42:21.738Z,13.98
2022-11-27T15:44:53.471Z,13.05
2022-11-27T15:47:31.841Z,13.87
2022-11-27T15:50:00.696Z,15.50
2022-11-27T15:52:33.957Z,15.38
2022-11-27T15:55:05.461Z,12.48
2022-11-27T15:57:39.039Z,13.50
2022-11-27T16:00:10.283Z,14.68
2022-11-27T16:02:45.259Z,15.68
2022-11-27T16:05:18.739Z,14.63
2022-11-27T16:07:51.072Z,13.55
2022-11-27T16:10:24.982Z,14.70
2022-11-27T16:12:56.316Z,15.20
2022-11-27T16:15:32.995Z,16.58
2022-11-27T16:18:07.725Z,15.52
2022-11-27T16:20:40.888Z,15.00
2022-11-27T16:23:08.689Z,15.52
2022-11-27T16:25:43.733Z,14.45
2022-11-27T16:28:12.711Z,14.25
2022-11-27T16:30:40.405Z,15.60
2022-11-27T16:33:08.330Z,15.68
2022-11-27T16:35:40.632Z,14.32
2022-11-27T16:38:12.663Z,14.57
2022-11-27T16:40:48.986Z,15.65
2022-11-27T16:43:17.758Z,13.85
2022-11-27T16:45:50.232Z,14.65
2022-11-27T16:48:22.855Z,17.80
2022-11-27T16:50:59.128Z,17.58
2022-11-27T16:53:33.971Z,15.18
2022-11-27T16:56:04.079Z,16.70
2022-11-27T16:58:36.341Z,17.45
2022-11-27T17:01:09.039Z,15.93
2022-11-27T17:03:43.340Z,13.48
2022-11-27T17:06:20.096Z,14.40
2022-11-27T17:08:50.773Z,16.77
2022-11-27T17:11:21.781Z,15.15
2022-11-27T17:14:06.516Z,15.45
2022-11-27T17:16:36.585Z,13.90
2022-11-27T17:19:06.288Z,19.08
2022-11-27T17:21:39.864Z,19.23
2022-11-27T17:24:15.010Z,15.63
2022-11-27T17:26:44.645Z,14.90
2022-11-27T17:29:24.364Z,16.85
2022-11-27T17:32:06.465Z,15.00
2022-11-27T17:34:34.977Z,17.00
2022-11-27T17:37:10.411Z,15.25
2022-11-27T17:39:41.847Z,16.15
2022-11-27T17:42:14.612Z,16.30
2022-11-27T17:44:53.004Z,16.38
2022-11-27T17:47:24.413Z,15.30
2022-11-27T17:50:06.551Z,16.65
2022-11-27T17:52:41.815Z,16.42
2022-11-27T17:55:09.748Z,14.75
2022-11-27T17:57:44.863Z,16.75
2022-11-27T18:00:20.819Z,16.27
2022-11-27T18:02:55.810Z,15.38
2022-11-27T18:05:29.009Z,16.90
2022-11-27T18:08:01.147Z,15.63
2022-11-27T18:10:34.054Z,17.23
2022-11-27T18:13:07.555Z,16.20
2022-11-27T18:15:41.671Z,17.27
2022-11-27T18:18:09.445Z,18.70
2022-11-27T18:20:37.675Z,16.02
2022-11-27T18:23:06.600Z,16.88
2022-11-27T18:25:36.849Z,17.15
2022-11-27T18:28:05.929Z,17.38
2022-11-27T18:30:36.274Z,17.67
2022-11-27T18:33:09.907Z,14.75
2022-11-27T18:35:42.886Z,16.02
2022-11-27T18:38:14.420Z,19.65
2022-11-27T18:40:42.175Z,16.63
2022-11-27T18:43:11.431Z,17.48
2022-11-27T18:45:39.408Z,20.02
2022-11-27T18:48:07.330Z,18.02
2022-11-27T18:50:36.908Z,18.25
2022-11-27T18:53:09.764Z,16.13
2022-11-27T18:55:37.712Z,18.90
2022-11-27T18:58:05.504Z,18.98
2022-11-27T19:00:34.841Z,18.08
2022-11-27T19:03:10.319Z,18.20
2022-11-27T19:05:48.272Z,17.10
2022-11-27T19:08:24.969Z,18.38
2022-11-27T19:10:54.006Z,16.98
2022-11-27T19:13:23.727Z,20.30
2022-11-27T19:15:55.845Z,18.33
2022-11-27T19:18:27.551Z,19.58
2022-11-27T19:21:00.557Z,17.00
2022-11-27T19:23:28.393Z,17.65
2022-11-27T19:26:08.141Z,16.63
2022-11-27T19:28:45.847Z,17.10
2022-11-27T19:31:21.589Z,19.33
2022-11-27T19:33:58.141Z,17.05
2022-11-27T19:36:26.098Z,17.50
2022-11-27T19:39:15.029Z,19.67
2022-11-27T19:42:01.914Z,18.15
2022-11-27T19:44:31.507Z,16.95
2022-11-27T19:47:04.639Z,17.60
2022-11-27T19:52:32.011Z,20.52
2022-11-27T19:55:01.984Z,19.52
2022-11-27T19:57:31.462Z,17.83
2022-11-27T20:00:11.730Z,20.65
2022-11-27T20:02:44.668Z,22.10
2022-11-27T20:05:21.632Z,22.15
2022-11-27T20:07:52.085Z,22.27
2022-11-27T20:10:43.174Z,20.40
2022-11-27T20:13:11.356Z,21.13
2022-11-27T20:15:58.010Z,22.17
2022-11-27T20:18:41.572Z,21.33
2022-11-27T20:21:16.272Z,20.88
2022-11-27T20:23:50.744Z,17.02
2022-11-27T20:26:23.679Z,21.23
2022-11-27T20:28:53.580Z,20.65
2022-11-27T20:31:27.679Z,21.55
2022-11-27T20:34:03.537Z,26.52
2022-11-27T20:36:41.288Z,20.30
2022-11-27T20:39:20.600Z,20.38
2022-11-27T20:41:50.162Z,23.20
2022-11-27T20:44:20.034Z,24.52
2022-11-27T20:46:48.071Z,20.85
2022-11-27T20:49:19.927Z,23.60
2022-11-27T20:51:51.861Z,22.10
2022-11-27T20:54:26.140Z,23.75
2022-11-27T20:56:54.053Z,22.15
2022-11-27T20:59:22.738Z,22.35
2022-11-27T21:01:54.157Z,30.65
2022-11-27T21:04:28.980Z,24.38
2022-11-27T21:06:58.674Z,22.65
2022-11-27T21:09:27.123Z,25.38
2022-11-27T21:11:54.980Z,24.48
2022-11-27T21:14:29.901Z,25.00
2022-11-27T21:17:04.586Z,25.33
2022-11-27T21:19:32.969Z,24.33
2022-11-27T21:22:03.635Z,24.95
2022-11-27T21:24:31.371Z,25.02
2022-11-27T21:27:08.072Z,27.45
2022-11-27T21:29:35.862Z,24.50
2022-11-27T21:32:03.604Z,27.23
2022-11-27T21:34:38.853Z,26.33
2022-11-27T21:37:06.996Z,25.90
2022-11-27T21:39:34.832Z,27.15
2022-11-27T21:42:08.121Z,23.83
2022-11-27T21:44:35.972Z,23.35
2022-11-27T21:47:13.018Z,23.83
2022-11-27T21:49:41.265Z,24.00
2022-11-27T21:52:11.386Z,21.60
2022-11-27T21:54:44.534Z,23.20
2022-11-27T21:57:12.474Z,25.73
2022-11-27T21:59:40.240Z,26.08
2022-11-27T22:02:08.247Z,27.38
2022-11-27T22:04:36.051Z,25.67
2022-11-27T22:07:03.964Z,22.88
2022-11-27T22:09:36.947Z,24.45
2022-11-27T22:12:04.863Z,22.77
2022-11-27T22:14:32.851Z,27.85
2022-11-27T22:17:01.027Z,27.08
2022-11-27T22:19:29.001Z,26.63
2022-11-27T22:21:57.107Z,26.52
2022-11-27T22:24:25.164Z,24.77
2022-11-27T22:26:56.749Z,25.00
2022-11-27T22:29:24.574Z,22.63
2022-11-27T22:31:53.540Z,26.10
2022-11-27T22:34:21.296Z,26.10
2022-11-27T22:36:49.205Z,18.35
2022-11-27T22:39:18.263Z,24.50
2022-11-27T22:41:46.248Z,24.55
2022-11-27T22:44:22.845Z,24.42
2022-11-27T22:46:50.961Z,27.42
2022-11-27T22:49:19.168Z,23.88
2022-11-27T22:51:47.256Z,22.77
2022-11-27T22:54:17.513Z,24.90
2022-11-27T22:56:49.194Z,25.20
2022-11-27T22:59:33.139Z,23.88
2022-11-27T23:02:02.523Z,27.23
2022-11-27T23:04:30.670Z,23.65
2022-11-27T23:06:58.528Z,23.40
2022-11-27T23:09:26.340Z,23.77
2022-11-27T23:11:54.357Z,27.13
2022-11-27T23:14:27.220Z,21.52
2022-11-27T23:16:55.098Z,19.50
2022-11-27T23:19:23.085Z,21.63
2022-11-27T23:21:50.976Z,18.65
2022-11-27T23:24:18.843Z,17.35
2022-11-27T23:26:47.968Z,16.30
2022-11-27T23:29:15.933Z,14.02
2022-11-27T23:31:44.906Z,16.23
2022-11-27T23:34:19.460Z,13.32
2022-11-27T23:36:50.026Z,11.80
2022-11-27T23:39:17.898Z,13.73
2022-11-27T23:41:46.515Z,13.45
2022-11-27T23:44:15.327Z,11.90
2022-11-27T23:46:43.142Z,10.80
2022-11-27T23:49:11.087Z,11.32
2022-11-27T23:51:38.980Z,11.15
2022-11-27T23:54:12.065Z,14.38
2022-11-27T23:56:40.043Z,14.02
2022-11-27T23:59:07.889Z,10.68
